Camp Johnson, Vermont
Current Conditions -  °F | °C
As of 3:54 AM on Saturday 22 Nov 2014 (Local Time) from KBTV Reporting Station
Few Clouds Few Clouds  
Wind Chill: 12°   Ceiling: Unl
Heat Index: 23°   Visibility: 10mi
Dew Point: 10°   Wind: 12mph
Humidity: 58%   Direction: 170°S
Pressure: 30.31"   Gusts: NA
Location:  44.5489°N, 73.1859°W
Report Text: KBTV 220854Z 17010KT 10SM FEW090 FEW120 M05/M12 A3031 RMK AO2 SLP269 T10501122 58008
Loading
Personal Weather Stations






























Interactive Weather Map New forecast layout! Learn more

10-Day Weather Forecast

Advertisements
Track Severe Weather on mobile